createdAt,value
2019-02-21T00:00:23.774Z,98892.17
2019-02-21T00:04:23.544Z,98894.79
2019-02-21T00:08:29.523Z,98887.44
2019-02-21T00:12:34.417Z,98892.62
2019-02-21T00:16:39.310Z,98892.66
2019-02-21T00:20:44.204Z,98896.55
2019-02-21T00:24:49.104Z,98896.55
2019-02-21T00:28:54.000Z,98895.67
2019-02-21T00:32:58.898Z,98904.31
2019-02-21T00:37:04.856Z,98900.42
2019-02-21T00:41:09.754Z,98902.11
2019-02-21T00:45:14.653Z,98900.38
2019-02-21T00:49:19.555Z,98907.27
2019-02-21T00:53:24.450Z,98904.66
2019-02-21T00:57:29.331Z,98902.47
2019-02-21T01:01:34.222Z,98905.48
2019-02-21T01:05:39.128Z,98905.06
2019-02-21T01:09:44.025Z,98895.98
2019-02-21T01:13:48.990Z,98900.27
2019-02-21T01:17:53.870Z,98901.98
2019-02-21T01:21:58.769Z,98906.36
2019-02-21T01:26:03.669Z,98908.95
2019-02-21T01:30:08.936Z,98916.73
2019-02-21T01:34:13.829Z,98913.72
2019-02-21T01:38:18.707Z,98906.37
2019-02-21T01:42:23.618Z,98913.69
2019-02-21T01:46:28.520Z,98914.11
2019-02-21T01:50:33.418Z,98923.18
2019-02-21T01:54:38.309Z,98916.67
2019-02-21T01:58:43.196Z,98917.47
2019-02-21T02:02:48.087Z,98914.80
2019-02-21T02:06:53.062Z,98909.63
2019-02-21T02:10:57.951Z,98916.98
2019-02-21T02:15:02.848Z,98924.36
2019-02-21T02:19:08.077Z,98928.70
2019-02-21T02:23:12.986Z,98920.95
2019-02-21T02:27:17.888Z,98917.94
2019-02-21T02:31:23.790Z,98916.63
2019-02-21T02:35:28.860Z,98913.20
2019-02-21T02:39:33.744Z,98912.77
2019-02-21T02:43:38.635Z,98914.44
2019-02-21T02:47:43.538Z,98913.98
2019-02-21T02:51:48.422Z,98907.97
2019-02-21T02:55:53.325Z,98911.42
2019-02-21T02:59:58.205Z,98912.25
2019-02-21T03:04:03.133Z,98915.22
2019-02-21T03:08:08.014Z,98915.70
2019-02-21T03:12:12.915Z,98922.64
2019-02-21T03:16:18.784Z,98919.66
2019-02-21T03:20:23.670Z,98921.41
2019-02-21T03:24:28.568Z,98928.34
2019-02-21T03:28:33.459Z,98918.84
2019-02-21T03:32:38.355Z,98923.61
2019-02-21T03:36:43.254Z,98927.93
2019-02-21T03:40:48.146Z,98923.67
2019-02-21T03:44:53.034Z,98932.31
2019-02-21T03:48:57.932Z,98928.91
2019-02-21T03:53:02.831Z,98928.07
2019-02-21T03:57:07.799Z,98922.91
2019-02-21T04:01:12.690Z,98924.19
2019-02-21T04:05:17.599Z,98922.88
2019-02-21T04:09:22.568Z,98928.08
2019-02-21T04:13:27.467Z,98925.48
2019-02-21T04:17:32.375Z,98927.64
2019-02-21T04:21:37.255Z,98927.64
2019-02-21T04:25:42.152Z,98920.73
2019-02-21T04:29:47.043Z,98926.79
2019-02-21T04:33:51.942Z,98931.55
2019-02-21T04:37:56.836Z,98927.23
2019-02-21T04:42:01.724Z,98932.41
2019-02-21T04:46:06.628Z,98930.24
2019-02-21T04:50:11.526Z,98926.80
2019-02-21T04:54:16.422Z,98925.05
2019-02-21T04:58:21.318Z,98921.17
2019-02-21T05:02:29.489Z,98920.70
2019-02-21T05:06:32.800Z,98924.16
2019-02-21T05:10:37.756Z,98924.13
2019-02-21T05:14:42.593Z,98934.48
2019-02-21T05:18:47.500Z,98927.98
2019-02-21T05:22:52.395Z,98916.75
2019-02-21T05:26:58.921Z,98924.94
2019-02-21T05:31:05.540Z,98932.66
2019-02-21T05:35:18.038Z,98932.28
2019-02-21T05:39:24.569Z,98934.91
2019-02-21T05:43:33.759Z,98934.92
2019-02-21T05:47:40.276Z,98927.17
2019-02-21T05:51:46.814Z,98927.63
2019-02-21T05:55:53.355Z,98929.78
2019-02-21T06:00:02.604Z,98926.35
2019-02-21T06:04:12.651Z,98925.92
2019-02-21T06:08:37.266Z,98921.61
2019-02-21T06:12:46.747Z,98920.73
2019-02-21T06:16:53.288Z,98927.65
2019-02-21T06:20:59.873Z,98929.82
2019-02-21T06:25:22.877Z,98925.47
2019-02-21T06:29:29.428Z,98935.84
2019-02-21T06:33:34.384Z,98933.66
2019-02-21T06:37:39.297Z,98941.03
2019-02-21T06:41:44.200Z,98942.30
2019-02-21T06:45:49.109Z,98945.30
2019-02-21T06:49:54.005Z,98951.31
2019-02-21T06:53:58.900Z,98953.45
2019-02-21T06:58:04.771Z,98953.45
2019-02-21T07:02:09.684Z,98953.89
2019-02-21T07:06:14.587Z,98953.87
2019-02-21T07:10:19.488Z,98953.80
2019-02-21T07:14:24.405Z,98960.66
2019-02-21T07:18:29.295Z,98963.13
2019-02-21T07:22:34.198Z,98969.18
2019-02-21T07:26:39.098Z,98964.70
2019-02-21T07:30:44.182Z,98967.06
2019-02-21T07:34:49.067Z,98962.54
2019-02-21T07:39:08.297Z,98969.30
2019-02-21T07:43:00.574Z,98975.62
2019-02-21T07:47:05.472Z,98969.41
2019-02-21T07:51:10.377Z,98981.42
2019-02-21T07:55:15.270Z,98992.08
2019-02-21T07:59:20.170Z,99005.42
2019-02-21T08:03:30.370Z,99011.41
2019-02-21T08:07:31.694Z,99011.72
2019-02-21T08:11:36.595Z,99019.48
2019-02-21T08:15:41.489Z,99021.17
2019-02-21T08:19:46.391Z,99022.74
2019-02-21T08:23:51.321Z,99032.73
2019-02-21T08:27:56.489Z,99035.77
2019-02-21T08:32:01.405Z,99039.52
2019-02-21T08:36:06.292Z,99031.98
2019-02-21T08:40:11.220Z,99034.38
2019-02-21T08:44:17.173Z,99031.56
2019-02-21T08:48:22.082Z,99040.85
2019-02-21T08:52:26.998Z,99035.41
2019-02-21T08:56:31.884Z,99033.00
2019-02-21T09:00:36.788Z,99041.17
2019-02-21T09:04:41.703Z,99041.03
2019-02-21T09:08:46.621Z,99041.31
2019-02-21T09:12:51.523Z,99043.68
2019-02-21T09:16:56.431Z,99043.13
2019-02-21T09:21:01.321Z,99044.59
2019-02-21T09:25:13.352Z,99043.26
2019-02-21T09:29:18.270Z,99045.07
2019-02-21T09:33:23.193Z,99047.28
2019-02-21T09:37:28.103Z,99050.41
2019-02-21T09:41:33.001Z,99039.36
2019-02-21T09:45:38.004Z,99049.66
2019-02-21T09:49:42.911Z,99046.91
2019-02-21T09:53:47.833Z,99062.07
2019-02-21T09:57:52.758Z,99069.05
2019-02-21T10:01:57.871Z,99061.68
2019-02-21T10:06:02.851Z,99065.13
2019-02-21T10:10:12.909Z,99066.45
2019-02-21T10:14:17.815Z,99061.56
2019-02-21T10:18:22.722Z,99062.64
2019-02-21T10:22:27.629Z,99066.33
2019-02-21T10:26:32.549Z,99071.12
2019-02-21T10:30:37.462Z,99075.44
2019-02-21T10:34:43.247Z,99079.31
2019-02-21T10:38:48.562Z,99081.42
2019-02-21T10:42:53.494Z,99078.96
2019-02-21T10:46:58.379Z,99080.66
2019-02-21T10:51:03.294Z,99079.96
2019-02-21T10:55:08.268Z,99080.86
2019-02-21T10:59:13.195Z,99084.80
2019-02-21T11:03:18.092Z,99074.61
2019-02-21T11:07:23.012Z,99074.94
2019-02-21T11:11:27.931Z,99070.69
2019-02-21T11:15:32.841Z,99079.44
2019-02-21T11:19:37.752Z,99076.50
2019-02-21T11:23:42.663Z,99067.95
2019-02-21T11:27:47.591Z,99059.14
2019-02-21T11:31:52.507Z,99054.59
2019-02-21T11:35:57.424Z,99055.07
2019-02-21T11:40:02.328Z,99056.69
2019-02-21T11:44:07.304Z,99056.14
2019-02-21T11:48:12.226Z,99058.38
2019-02-21T11:52:17.129Z,99061.19
2019-02-21T11:56:22.040Z,99057.22
2019-02-21T12:00:30.790Z,99050.20
2019-02-21T12:04:35.699Z,99035.47
2019-02-21T12:08:40.627Z,99022.06
2019-02-21T12:12:45.544Z,99006.61
2019-02-21T12:16:50.461Z,98996.70
2019-02-21T12:20:55.397Z,98981.13
2019-02-21T12:25:00.382Z,98983.30
2019-02-21T12:29:05.293Z,99008.51
2019-02-21T12:33:10.202Z,99016.04
2019-02-21T12:37:15.119Z,99010.33
2019-02-21T12:41:20.033Z,99012.69
2019-02-21T12:45:30.051Z,99007.05
2019-02-21T12:49:35.351Z,99021.34
2019-02-21T12:53:40.257Z,99022.48
2019-02-21T12:57:45.246Z,99018.84
2019-02-21T13:01:50.154Z,99016.54
2019-02-21T13:05:55.070Z,99027.77
2019-02-21T13:09:59.988Z,99023.98
2019-02-21T13:14:05.960Z,99010.87
2019-02-21T13:18:15.959Z,99020.70
2019-02-21T13:22:18.458Z,99012.97
2019-02-21T13:26:23.370Z,99011.06
2019-02-21T13:30:28.285Z,99009.74
2019-02-21T13:34:33.203Z,99004.73
2019-02-21T13:38:38.119Z,99007.29
2019-02-21T13:42:43.029Z,99003.80
2019-02-21T13:46:47.929Z,99004.34
2019-02-21T13:50:52.857Z,99006.39
2019-02-21T13:54:57.756Z,98996.00
2019-02-21T13:59:02.669Z,98985.47
2019-02-21T14:03:07.585Z,98979.94
2019-02-21T14:07:12.489Z,98976.61
2019-02-21T14:11:17.405Z,98973.89
2019-02-21T14:15:27.838Z,98969.69
2019-02-21T14:19:32.751Z,98970.88
2019-02-21T14:23:37.659Z,98971.61
2019-02-21T14:27:42.563Z,98982.15
2019-02-21T14:31:47.475Z,98992.01
2019-02-21T14:35:52.393Z,98982.84
2019-02-21T14:39:57.301Z,98978.78
2019-02-21T14:44:02.214Z,98976.73
2019-02-21T14:48:07.106Z,98967.16
2019-02-21T14:52:12.025Z,98975.47
2019-02-21T14:56:16.953Z,98973.28
2019-02-21T15:00:23.945Z,98984.52
2019-02-21T15:04:28.853Z,98987.47
2019-02-21T15:08:33.761Z,98980.41
2019-02-21T15:12:39.640Z,98982.88
2019-02-21T15:16:44.545Z,99001.50
2019-02-21T15:20:49.455Z,99005.73
2019-02-21T15:24:54.368Z,99008.27
2019-02-21T15:29:00.026Z,99003.37
2019-02-21T15:33:05.092Z,98997.86
2019-02-21T15:37:10.012Z,98994.36
2019-02-21T15:41:14.920Z,98993.87
2019-02-21T15:45:24.213Z,98995.14
2019-02-21T15:49:30.374Z,98994.84
2019-02-21T15:53:35.288Z,99005.91
2019-02-21T15:57:40.206Z,99002.94
2019-02-21T16:01:47.790Z,99003.84
2019-02-21T16:05:51.714Z,98995.16
2019-02-21T16:09:56.615Z,99005.09
2019-02-21T16:14:03.556Z,99002.16
2019-02-21T16:18:08.138Z,99006.19
2019-02-21T16:22:13.054Z,99011.97
2019-02-21T16:26:17.961Z,99007.61
2019-02-21T16:30:22.869Z,99006.90
2019-02-21T16:34:27.777Z,99011.89
2019-02-21T16:38:32.690Z,99022.17
2019-02-21T16:42:37.589Z,99022.66
2019-02-21T16:46:42.501Z,99021.05
2019-02-21T16:50:48.533Z,99023.44
2019-02-21T16:54:53.592Z,99028.39
2019-02-21T16:58:58.508Z,99029.81
2019-02-21T17:03:03.426Z,99033.86
2019-02-21T17:07:15.133Z,99047.93
2019-02-21T17:11:14.938Z,99052.76
2019-02-21T17:15:19.925Z,99063.34
2019-02-21T17:19:24.836Z,99069.19
2019-02-21T17:23:30.813Z,99071.57
2019-02-21T17:27:35.725Z,99077.83
2019-02-21T17:31:40.639Z,99082.36
2019-02-21T17:35:45.560Z,99070.60
2019-02-21T17:39:50.466Z,99082.49
2019-02-21T17:47:58.881Z,99075.25
2019-02-21T17:52:03.927Z,99090.75
2019-02-21T17:56:08.843Z,99083.96
2019-02-21T18:00:17.340Z,99082.75
2019-02-21T18:04:22.394Z,99081.72
2019-02-21T18:08:27.311Z,99088.56
2019-02-21T18:12:32.221Z,99093.63
2019-02-21T18:16:37.125Z,99087.14
2019-02-21T18:20:42.040Z,99095.00
2019-02-21T18:24:46.958Z,99101.09
2019-02-21T18:28:51.932Z,99095.45
2019-02-21T18:32:58.429Z,99094.20
2019-02-21T18:37:04.481Z,99084.19
2019-02-21T18:41:09.465Z,99098.14
2019-02-21T18:45:14.369Z,99099.51
2019-02-21T18:49:19.309Z,99100.58
2019-02-21T18:53:24.230Z,99104.30
2019-02-21T18:57:29.116Z,99115.36
2019-02-21T19:01:34.042Z,99104.23
2019-02-21T19:05:38.955Z,99117.14
2019-02-21T19:09:43.861Z,99116.45
2019-02-21T19:13:48.824Z,99116.50
2019-02-21T19:17:53.754Z,99113.85
2019-02-21T19:21:58.667Z,99116.56
2019-02-21T19:26:03.577Z,99115.84
2019-02-21T19:30:14.526Z,99117.43
2019-02-21T19:34:19.438Z,99122.69
2019-02-21T19:38:24.338Z,99123.85
2019-02-21T19:42:29.246Z,99126.38
2019-02-21T19:46:35.231Z,99131.61
2019-02-21T19:50:40.150Z,99131.61
2019-02-21T19:54:45.047Z,99132.55
2019-02-21T19:58:49.962Z,99134.38
2019-02-21T20:02:55.155Z,99150.63
2019-02-21T20:07:00.069Z,99147.57
2019-02-21T20:11:04.998Z,99153.17
2019-02-21T20:15:11.544Z,99160.05
2019-02-21T20:19:17.408Z,99161.19
2019-02-21T20:23:22.323Z,99169.71
2019-02-21T20:27:27.314Z,99178.32
2019-02-21T20:31:32.227Z,99172.68
2019-02-21T20:35:37.169Z,99172.31
2019-02-21T20:39:42.052Z,99174.09
2019-02-21T20:43:46.958Z,99182.72
2019-02-21T20:47:51.870Z,99183.56
2019-02-21T20:51:56.788Z,99185.23
2019-02-21T20:56:01.705Z,99189.24
2019-02-21T21:00:12.046Z,99190.03
2019-02-21T21:04:17.025Z,99187.78
2019-02-21T21:08:21.942Z,99197.87
2019-02-21T21:12:26.852Z,99191.36
2019-02-21T21:16:31.798Z,99198.41
2019-02-21T21:20:36.700Z,99204.56
2019-02-21T21:24:42.582Z,99213.78
2019-02-21T21:28:47.559Z,99207.33
2019-02-21T21:32:52.410Z,99222.13
2019-02-21T21:36:57.318Z,99217.22
2019-02-21T21:41:02.229Z,99223.20
2019-02-21T21:45:10.450Z,99231.78
2019-02-21T21:49:15.358Z,99231.78
2019-02-21T21:53:20.290Z,99233.52
2019-02-21T21:57:25.188Z,99238.43
2019-02-21T22:01:31.063Z,99235.04
2019-02-21T22:05:35.983Z,99243.42
2019-02-21T22:09:40.891Z,99240.72
2019-02-21T22:13:45.800Z,99251.14
2019-02-21T22:17:50.783Z,99243.50
2019-02-21T22:21:55.687Z,99245.66
2019-02-21T22:26:00.601Z,99240.68
2019-02-21T22:30:08.798Z,99240.91
2019-02-21T22:34:13.704Z,99243.72
2019-02-21T22:38:18.630Z,99232.50
2019-02-21T22:42:23.530Z,99217.34
2019-02-21T22:46:28.442Z,99223.20
2019-02-21T22:50:33.357Z,99210.33
2019-02-21T22:54:38.261Z,99207.84
2019-02-21T22:58:45.346Z,99221.48
2019-02-21T23:02:49.843Z,99225.14
2019-02-21T23:07:12.735Z,99230.03
2019-02-21T23:11:17.636Z,99227.55
2019-02-21T23:15:22.626Z,99227.30
2019-02-21T23:19:27.530Z,99236.06
2019-02-21T23:23:32.903Z,99236.80
2019-02-21T23:27:37.791Z,99232.42
2019-02-21T23:31:42.698Z,99244.13
2019-02-21T23:35:47.605Z,99236.63
2019-02-21T23:39:52.505Z,99237.86
2019-02-21T23:43:57.493Z,99230.39
2019-02-21T23:48:02.388Z,99228.27
2019-02-21T23:52:08.362Z,99232.19
2019-02-21T23:56:13.269Z,99235.69
